METAR Data
IDs: Format: Raw Decoded Include TAF

Data at: 2159 UTC 10 May 2021

K7BM 102135Z AUTO 23011G30KT 210V270 10SM SCT050 BKN055 OVC110 07/M09 A3002 RMK AO2
K7BM 102115Z AUTO 26016G41KT 220V300 10SM SCT028 SCT044 BKN065 07/M09 A3002 RMK AO2
K7BM 102055Z AUTO 26013G24KT 210V310 10SM SCT028 BKN044 BKN055 07/M07 A3003 RMK AO2 LTG DSNT N
K7BM 102035Z AUTO 24005G28KT 210V300 10SM SCT028 SCT043 BKN075 07/M08 A3001 RMK AO2 LTG DSNT N
K7BM 102015Z AUTO 12004KT 10SM SCT060 BKN075 05/00 A3002 RMK AO2
K7BM 101955Z AUTO 19005KT 10SM SCT022 SCT043 OVC070 04/00 A3003 RMK AO2
K7BM 101935Z AUTO 09003KT 10SM SCT017 BKN050 OVC065 04/00 A3002 RMK AO2
K7BM 101915Z AUTO 00000KT 10SM SCT020 BKN055 OVC075 04/00 A3003 RMK AO2
K7BM 101855Z AUTO 29003KT 10SM SCT025 SCT060 OVC070 05/00 A3002 RMK AO2
K7BM 101835Z AUTO 00000KT 10SM SCT060 BKN070 BKN080 05/01 A3002 RMK AO2
K7BM 101815Z AUTO 00000KT 10SM SCT031 SCT043 BKN050 05/02 A3003 RMK AO2
K7BM 101755Z AUTO 00000KT 10SM SCT006 SCT025 BKN047 02/00 A3003 RMK AO2 LTG DSNT N
K7BM 101735Z AUTO 13009KT 10SM SCT004 BKN008 OVC060 01/01 A3003 RMK AO2
K7BM 101715Z AUTO 13006KT 1/4SM -SN OVC002 M02/M02 A3004 RMK AO2
K7BM 101655Z AUTO 13006KT M1/4SM -SN OVC002 M05/M05 A3005 RMK AO2
K7BM 101635Z AUTO 14003KT 1/4SM FG OVC002 01/01 A3005 RMK AO2
K7BM 101615Z AUTO 11003KT M1/4SM FG OVC002 00/00 A3005 RMK AO2
K7BM 101555Z AUTO 11004KT 1/4SM FG OVC002 00/00 A3005 RMK AO2
K7BM 101535Z AUTO 00000KT 1/4SM FG OVC002 00/ A3005 RMK AO2 VIS 1/4V1 3/4
K7BM 101515Z AUTO 10003KT M1/4SM FG OVC002 00/ A3006 RMK AO2
K7BM 101455Z AUTO 00000KT M1/4SM FG OVC002 00/ A3006 RMK AO2
K7BM 101435Z AUTO 00000KT M1/4SM FG OVC002 00/ A3006 RMK AO2
K7BM 101415Z AUTO 00000KT M1/4SM FG OVC002 00/ A3006 RMK AO2
K7BM 101355Z AUTO 00000KT M1/4SM FG OVC002 00/ A3006 RMK AO2
K7BM 101335Z AUTO 00000KT 3/4SM BR OVC002 00/ A3006 RMK AO2 VIS 1/4V5
K7BM 101315Z AUTO 00000KT 1 1/4SM BR OVC002 00/ A3007 RMK AO2 VIS 3/4V5
K7BM 101255Z AUTO 00000KT 3/4SM BR OVC002 00/ A3007 RMK AO2
K7BM 101235Z AUTO 00000KT 1/4SM FZFG OVC002 M01/ A3007 RMK AO2
K7BM 101215Z AUTO 00000KT M1/4SM FZFG OVC002 M01/ A3007 RMK AO2
K7BM 101155Z AUTO 00000KT 1/4SM FZFG OVC002 M01/ A3007 RMK AO2
K7BM 101135Z AUTO 00000KT 1/2SM FZFG OVC002 00/ A3008 RMK AO2
K7BM 101115Z AUTO 00000KT 1/2SM FZFG OVC002 M01/ A3008 RMK AO2
K7BM 101055Z AUTO 00000KT 1/2SM FZFG OVC002 M01/ A3008 RMK AO2
K7BM 101035Z AUTO 00000KT 1SM BR BKN002 OVC041 M01/ A3009 RMK AO2 VIS 1/2V5
K7BM 101015Z AUTO 00000KT M1/4SM FZFG OVC002 00/00 A3009 RMK AO2
K7BM 100955Z AUTO 00000KT 1/2SM FZFG OVC002 00/00 A3010 RMK AO2
K7BM 100935Z AUTO 00000KT 1/4SM -SN OVC002 00/00 A3010 RMK AO2
K7BM 100915Z AUTO 13006KT 1/4SM -SN OVC002 00/00 A3010 RMK AO2
K7BM 100855Z AUTO 14008KT 1/2SM SN OVC002 00/00 A3010 RMK AO2
K7BM 100835Z AUTO 15006KT 1SM SN BKN002 OVC008 00/00 A3010 RMK AO2
K7BM 100815Z AUTO 16004KT 1 1/4SM -SN SCT003 OVC008 00/00 A3011 RMK AO2
K7BM 100755Z AUTO 00000KT 1 1/4SM -SN BKN001 OVC010 00/00 A3012 RMK AO2
K7BM 100735Z AUTO 00000KT 1 3/4SM -SN BKN001 OVC008 00/00 A3012 RMK AO2
K7BM 100715Z AUTO 00000KT 1SM -SN OVC001 00/00 A3012 RMK AO2
K7BM 100655Z AUTO 00000KT 1/4SM -SN OVC001 00/00 A3012 RMK AO2 LTG DSNT SE
K7BM 100635Z AUTO 00000KT 1/2SM FZFG OVC001 00/00 A3012 RMK AO2
K7BM 100615Z AUTO 00000KT 1/4SM FZFG OVC001 00/00 A3012 RMK AO2 LTG DSNT E
K7BM 100555Z AUTO 00000KT 1/4SM FZFG OVC001 00/00 A3012 RMK AO2
K7BM 100535Z AUTO 00000KT 10SM CLR 00/M03 A3012 RMK AO2 LTG DSNT S
K7BM 100515Z AUTO 15003KT 10SM SCT120 01/M04 A3012 RMK AO2 LTG DSNT SE
K7BM 100455Z AUTO 14004KT 10SM CLR 01/M03 A3012 RMK AO2
K7BM 100435Z AUTO 12006KT 10SM CLR 01/M04 A3012 RMK AO2
K7BM 100415Z AUTO 00000KT 10SM SCT120 02/M06 A3012 RMK AO2
K7BM 100355Z AUTO 35005KT 10SM BKN120 02/M07 A3011 RMK AO2
K7BM 100335Z AUTO 32005KT 10SM SCT110 03/M07 A3011 RMK AO2
K7BM 100315Z AUTO 32004KT 10SM SCT100 SCT120 02/M07 A3011 RMK AO2
K7BM 100255Z AUTO 27007G15KT 10SM SCT085 SCT095 03/M08 A3011 RMK AO2
K7BM 100235Z AUTO 25014G21KT 10SM SCT085 03/M08 A3010 RMK AO2
K7BM 100215Z AUTO 25011G17KT 10SM CLR 02/M07 A3010 RMK AO2
K7BM 100155Z AUTO 26013G19KT 230V290 10SM SCT038 SCT049 03/M08 A3010 RMK AO2
K7BM 100135Z AUTO 26013G25KT 230V290 10SM SCT041 SCT049 SCT060 04/M10 A3010 RMK AO2
K7BM 100115Z AUTO 25009G23KT 220V330 10SM SCT060 SCT080 SCT090 04/M10 A3009 RMK AO2
K7BM 100055Z AUTO 28004KT 10SM SCT060 BKN070 BKN080 05/M10 A3008 RMK AO2
K7BM 100035Z AUTO 28005G22KT 10SM SCT050 OVC060 06/M12 A3008 RMK AO2
K7BM 100015Z AUTO 23004KT 10SM BKN070 OVC080 06/M12 A3007 RMK AO2
K7BM 092355Z AUTO 28009G17KT 210V340 10SM SCT075 BKN110 07/M13 A3005 RMK AO2
K7BM 092335Z AUTO 28008G22KT 250V320 10SM CLR 07/M14 A3005 RMK AO2
K7BM 092315Z AUTO 29009G29KT 240V320 10SM SCT120 07/M14 A3005 RMK AO2
K7BM 092255Z AUTO 28012G29KT 10SM SCT075 BKN120 07/M14 A3005 RMK AO2
K7BM 092235Z AUTO 25004KT 10SM SCT075 SCT085 BKN120 07/M12 A3005 RMK AO2
K7BM 092215Z AUTO 26007G18KT 10SM SCT070 SCT090 BKN120 08/M12 A3005 RMK AO2
K7BM 092155Z AUTO 27005G18KT 10SM SCT070 SCT080 BKN110 07/M11 A3006 RMK AO2
K7BM 092135Z AUTO 31009G21KT 10SM SCT060 SCT070 BKN110 06/M12 A3006 RMK AO2
K7BM 092115Z AUTO 24012G18KT 10SM BKN070 OVC090 06/M12 A3007 RMK AO2
K7BM 092055Z AUTO 23014G22KT 10SM BKN070 OVC085 06/M13 A3006 RMK AO2
K7BM 092035Z AUTO 26019G25KT 10SM SCT060 BKN090 07/M12 A3007 RMK AO2
K7BM 092015Z AUTO 28005KT 10SM SCT065 SCT080 BKN120 07/M11 A3006 RMK AO2
K7BM 091955Z AUTO 33006G21KT 10SM BKN065 BKN080 07/M11 A3007 RMK AO2 LTG DSNT S
K7BM 091935Z AUTO 26004G17KT 10SM SCT046 OVC065 06/M12 A3007 RMK AO2
K7BM 091915Z AUTO 24015G27KT 200V260 10SM SCT065 OVC075 06/M14 A3007 RMK AO2
K7BM 091855Z AUTO 24019G27KT 210V270 10SM OVC075 07/M16 A3007 RMK AO2
K7BM 091835Z AUTO 27008G23KT 210V300 10SM OVC090 07/M17 A3006 RMK AO2
K7BM 091815Z AUTO 00000KT 10SM OVC090 07/M12 A3007 RMK AO2
K7BM 091755Z AUTO 00000KT 10SM SCT044 SCT080 OVC090 06/M06 A3007 RMK AO2
K7BM 091735Z AUTO 00000KT 10SM SCT039 BKN050 OVC090 07/M03 A3007 RMK AO2
K7BM 091715Z AUTO 00000KT 10SM SCT031 SCT050 BKN060 06/M04 A3008 RMK AO2
K7BM 091655Z AUTO 09003KT 10SM SCT023 BKN030 OVC110 07/M02 A3008 RMK AO2
K7BM 091635Z AUTO 11006KT 10SM BKN021 BKN085 05/M01 A3008 RMK AO2
K7BM 091615Z AUTO 12008KT 10SM SCT015 SCT023 06/M01 A3008 RMK AO2
K7BM 091555Z AUTO 12007KT 10SM BKN013 BKN020 05/00 A3009 RMK AO2
K7BM 091535Z AUTO 10004KT 10SM SCT006 OVC011 03/00 A3010 RMK AO2
K7BM 091515Z AUTO 15005KT 10SM BKN009 OVC013 03/00 A3010 RMK AO2
K7BM 091455Z AUTO 12007KT 10SM OVC011 01/M01 A3011 RMK AO2
K7BM 091435Z AUTO 10004KT 10SM BKN008 BKN011 01/M01 A3012 RMK AO2
K7BM 091415Z AUTO 11006KT 10SM SCT009 02/M01 A3011 RMK AO2
K7BM 091355Z AUTO 10005KT 10SM BKN007 02/M01 A3011 RMK AO2
K7BM 091335Z AUTO 12004KT 10SM BKN005 BKN009 01/M01 A3010 RMK AO2
K7BM 091315Z AUTO 12006KT 10SM CLR 00/M01 A3010 RMK AO2
K7BM 091255Z AUTO 13006KT 10SM CLR 00/M01 A3009 RMK AO2
K7BM 091235Z AUTO 14006KT 10SM CLR 00/M01 A3008 RMK AO2
K7BM 091215Z AUTO 13005KT 10SM CLR 00/M02 A3008 RMK AO2
K7BM 091155Z AUTO 15003KT 10SM CLR 01/M03 A3008 RMK AO2
K7BM 091135Z AUTO 00000KT 10SM CLR 01/M04 A3008 RMK AO2
K7BM 091115Z AUTO 00000KT 10SM CLR 01/M03 A3008 RMK AO2
K7BM 091055Z AUTO 00000KT 10SM CLR 01/M03 A3007 RMK AO2
K7BM 091035Z AUTO 00000KT 10SM CLR 01/M06 A3008 RMK AO2
K7BM 091015Z AUTO 00000KT 10SM CLR 01/M05 A3008 RMK AO2